Time;durP1;ratioP1;P1;durP2;ratioP2;P2;SDS_P1;SDS_P2;PMS_P1;PMS_P2;Temp;Humidity;BMP_temperature;BMP_pressure;BME280_temperature;BME280_humidity;BME280_pressure;Samples;Min_cycle;Max_cycle;Signal;HPM_P1;HPM_P2
2022/08/13 00:01:24;;;;;;;10.55;2.97;;;;;;;23.70;57.50;101073.63;4908091;29;20108;-80
2022/08/13 00:03:55;;;;;;;2.97;2.78;;;;;;;23.65;57.45;101052.56;4908984;29;20546;-80
2022/08/13 00:09:05;;;;;;;6.60;2.97;;;;;;;23.46;56.93;101013.63;4894219;29;20603;-80
2022/08/13 00:14:34;;;;;;;5.10;3.25;;;;;;;23.25;57.48;101001.16;4895304;29;20141;-80
2022/08/13 00:17:08;;;;;;;4.43;3.03;;;;;;;23.43;57.81;101030.31;4907450;29;20060;-81
2022/08/13 00:19:38;;;;;;;;;;;;;;;23.59;57.75;101056.97;4909280;29;20139;-81
2022/08/13 00:22:08;;;;;;;3.60;3.30;;;;;;;23.26;57.04;100986.56;4908794;29;20312;-81
2022/08/13 00:24:55;;;;;;;4.70;2.75;;;;;;;23.36;57.12;101002.41;4905226;29;20062;-82
2022/08/13 00:27:23;;;;;;;3.42;2.70;;;;;;;23.67;57.53;101062.16;4908701;29;20250;-80
2022/08/13 00:29:54;;;;;;;3.78;2.78;;;;;;;23.64;57.54;101056.31;4909654;29;20060;-81
2022/08/13 00:32:32;;;;;;;5.55;2.75;;;;;;;23.62;56.92;101053.81;4908287;29;20632;-81
2022/08/13 00:35:02;;;;;;;5.53;2.88;;;;;;;23.33;57.84;101002.81;4907924;29;20588;-80
2022/08/13 00:37:37;;;;;;;3.05;2.78;;;;;;;23.62;57.23;101051.13;4907682;29;20135;-80
2022/08/13 00:40:19;;;;;;;3.55;2.70;;;;;;;23.58;57.53;101047.16;4895479;29;20650;-81
2022/08/13 00:43:03;;;;;;;3.53;3.08;;;;;;;22.96;57.30;100953.66;4906754;29;20054;-81
2022/08/13 00:45:32;;;;;;;2.45;2.17;;;;;;;23.44;57.24;101034.66;4908446;29;20433;-81
2022/08/13 00:50:47;;;;;;;3.35;2.67;;;;;;;23.68;55.48;101028.56;4894816;29;20078;-81
2022/08/13 00:53:18;;;;;;;3.38;2.42;;;;;;;23.92;54.99;101028.13;4912245;29;20063;-82
2022/08/13 00:55:52;;;;;;;3.75;3.05;;;;;;;23.73;54.74;101002.72;4912613;29;20060;-80
2022/08/13 00:58:20;;;;;;;4.57;2.63;;;;;;;23.81;55.91;101016.91;4910889;29;20562;-80
2022/08/13 01:00:56;;;;;;;3.25;2.83;;;;;;;23.86;54.73;100994.56;4908994;29;20166;-81
2022/08/13 01:03:25;;;;;;;4.30;2.72;;;;;;;23.95;54.64;100995.97;4908540;29;20064;-82
2022/08/13 01:06:11;;;;;;;2.50;2.30;;;;;;;23.76;54.97;101002.31;4905559;29;20164;-81
2022/08/13 01:08:46;;;;;;;4.18;2.70;;;;;;;23.64;56.06;101005.66;4896475;29;20063;-82
2022/08/13 01:11:23;;;;;;;4.53;2.75;;;;;;;23.66;55.48;101014.41;4912377;29;20624;-82
2022/08/13 01:13:51;;;;;;;5.18;2.83;;;;;;;23.49;55.63;100985.28;4898406;29;20142;-81
2022/08/13 01:16:19;;;;;;;3.38;2.30;;;;;;;23.32;55.38;100976.75;4898398;29;20060;-80
2022/08/13 01:18:51;;;;;;;3.42;2.63;;;;;;;23.57;55.06;101026.53;4897294;29;20166;-81
2022/08/13 01:21:24;;;;;;;4.13;3.13;;;;;;;23.55;55.67;101025.91;4913119;29;20052;-80
2022/08/13 01:24:09;;;;;;;3.28;2.85;;;;;;;23.21;55.59;100968.25;4910856;29;20140;-81
2022/08/13 01:26:39;;;;;;;5.38;2.35;;;;;;;23.51;54.87;101011.09;4898590;29;20063;-81
2022/08/13 01:29:15;;;;;;;4.47;3.10;;;;;;;23.54;54.87;101015.28;4897818;29;20522;-81
2022/08/13 01:31:43;;;;;;;4.68;2.60;;;;;;;23.57;55.17;101029.25;4911040;29;20052;-79
2022/08/13 01:34:13;;;;;;;7.10;2.80;;;;;;;23.42;55.24;100988.00;4910251;29;20052;-80
2022/08/13 01:36:53;;;;;;;3.97;3.20;;;;;;;23.12;55.12;100941.59;4909301;29;20059;-82
2022/08/13 01:39:22;;;;;;;;;;;;;;;23.48;55.40;101006.13;4910674;29;20067;-81
2022/08/13 01:41:55;;;;;;;3.22;2.53;;;;;;;23.57;54.92;100999.44;4894927;29;19927;-80
2022/08/13 01:44:25;;;;;;;3.25;2.80;;;;;;;23.58;54.46;100984.00;4895660;29;20613;-81
2022/08/13 01:53:08;;;;;;;3.13;2.80;;;;;;;23.74;53.76;101001.69;4895541;29;20140;-81
2022/08/13 01:55:43;;;;;;;4.95;2.95;;;;;;;23.64;54.74;101008.38;4909980;29;20221;-83
2022/08/13 01:58:30;;;;;;;2.78;2.50;;;;;;;23.45;55.23;100995.72;4895755;29;20805;-82
2022/08/13 02:01:02;;;;;;;3.97;3.45;;;;;;;23.56;55.54;101008.59;4910502;29;20056;-82
2022/08/13 02:03:36;;;;;;;3.45;3.00;;;;;;;23.52;56.29;101006.50;4892464;29;20373;-81
2022/08/13 02:06:03;;;;;;;3.53;3.00;;;;;;;23.54;56.62;101026.09;4906929;29;20421;-82
2022/08/13 02:08:51;;;;;;;8.82;7.95;;;;;;;22.73;57.05;100903.50;4891381;29;20257;-83
2022/08/13 02:11:19;;;;;;;6.50;5.90;;;;;;;23.35;57.33;100987.16;4907266;29;20544;-81
2022/08/13 02:13:55;;;;;;;6.03;5.22;;;;;;;23.34;58.09;100990.94;4906404;29;20143;-82
2022/08/13 02:16:28;;;;;;;7.05;5.20;;;;;;;23.26;58.48;100981.16;4906137;29;20064;-82
2022/08/13 02:18:59;;;;;;;4.60;4.20;;;;;;;22.78;58.34;100909.13;4892647;29;20305;-82
2022/08/13 02:21:30;;;;;;;6.38;3.92;;;;;;;23.31;58.28;100999.50;4905774;29;20181;-81
2022/08/13 02:24:13;;;;;;;3.63;3.33;;;;;;;22.89;57.97;100950.97;4892282;29;20247;-81
2022/08/13 02:26:47;;;;;;;3.75;3.03;;;;;;;23.19;57.50;100994.69;4892505;29;20407;-81
2022/08/13 02:29:22;;;;;;;3.05;2.60;;;;;;;23.28;56.54;100991.75;4890907;29;20472;-83
2022/08/13 02:31:52;;;;;;;3.65;3.13;;;;;;;23.20;56.33;101007.19;4906063;29;20056;-83
2022/08/13 02:34:39;;;;;;;3.47;3.00;;;;;;;22.75;56.39;100933.91;4898437;29;20136;-83
2022/08/13 02:37:10;;;;;;;5.80;3.35;;;;;;;23.14;55.73;100986.38;4886808;29;20554;-82
2022/08/13 02:39:56;;;;;;;3.17;2.85;;;;;;;23.03;55.73;100966.19;4884688;29;20044;-81
2022/08/13 02:42:23;;;;;;;4.40;3.10;;;;;;;23.33;55.55;101013.66;4871600;29;20055;-83
2022/08/13 02:44:51;;;;;;;4.07;2.92;;;;;;;23.16;56.46;101024.91;4903440;29;20060;-81
2022/08/13 02:47:22;;;;;;;5.13;3.20;;;;;;;23.09;56.39;101034.91;4886954;29;20540;-83
2022/08/13 02:50:09;;;;;;;3.47;3.25;;;;;;;22.97;56.66;101041.97;4886141;29;20518;-81
2022/08/13 02:52:39;;;;;;;3.85;3.55;;;;;;;22.96;56.63;101030.31;4872687;29;20059;-79
2022/08/13 02:55:24;;;;;;;9.82;4.30;;;;;;;22.98;56.47;101020.13;4901712;29;20052;-83
2022/08/13 02:57:53;;;;;;;5.38;4.25;;;;;;;22.52;57.12;100957.81;4873812;29;20053;-81
2022/08/13 03:00:20;;;;;;;6.85;3.40;;;;;;;22.79;57.66;101026.31;4888493;29;20724;-82
2022/08/13 03:02:57;;;;;;;5.38;4.53;;;;;;;22.90;58.28;101031.13;4876002;29;20075;-82
2022/08/13 03:05:30;;;;;;;6.32;4.70;;;;;;;22.87;58.42;101038.84;4914102;29;20056;-83
2022/08/13 03:08:16;;;;;;;5.53;5.03;;;;;;;22.82;58.96;101040.28;4891188;29;20080;-81
2022/08/13 03:11:04;;;;;;;6.10;5.50;;;;;;;22.78;58.85;101022.78;4901596;29;20869;-81
2022/08/13 03:13:36;;;;;;;6.28;5.32;;;;;;;22.75;59.62;101036.75;4904016;29;20297;-81
2022/08/13 03:16:17;;;;;;;5.00;4.50;;;;;;;22.43;60.07;100996.91;4900808;29;20076;-82
2022/08/13 03:18:47;;;;;;;9.23;5.25;;;;;;;22.80;59.58;101031.53;4905147;29;20066;-81
2022/08/13 03:21:23;;;;;;;5.78;5.18;;;;;;;22.67;60.13;101023.41;4904728;29;20095;-81
2022/08/13 03:24:13;;;;;;;7.28;5.68;;;;;;;22.66;59.96;101016.31;4903684;29;20075;-82
2022/08/13 03:26:58;;;;;;;6.32;5.30;;;;;;;22.74;59.82;101028.81;4891536;29;20060;-82
2022/08/13 03:29:25;;;;;;;8.98;6.05;;;;;;;22.58;59.88;101005.72;4904904;29;20059;-82
2022/08/13 03:32:17;;;;;;;7.82;7.05;;;;;;;22.68;59.78;101014.25;4902193;29;20156;-82
2022/08/13 03:34:56;;;;;;;11.05;6.95;;;;;;;22.55;60.01;101006.09;4904058;29;20637;-82
2022/08/13 03:37:23;;;;;;;7.70;6.38;;;;;;;22.42;60.50;100995.25;4904505;29;20055;-82
2022/08/13 03:39:52;;;;;;;12.90;7.05;;;;;;;22.65;60.36;101021.94;4905010;29;20557;-82
2022/08/13 03:42:19;;;;;;;6.88;6.22;;;;;;;22.44;60.56;100988.59;4889662;29;20823;-81
2022/08/13 03:45:07;;;;;;;6.93;6.18;;;;;;;22.56;60.53;101007.78;4889878;29;20143;-81
2022/08/13 03:47:39;;;;;;;10.45;7.57;;;;;;;22.60;60.66;101022.56;4904429;29;20522;-82
2022/08/13 03:50:09;;;;;;;9.50;6.68;;;;;;;22.50;60.65;101009.44;4891202;29;20812;-82
2022/08/13 03:52:36;;;;;;;8.30;7.35;;;;;;;22.44;60.51;101009.41;4905936;29;20071;-82
2022/08/13 03:55:10;;;;;;;8.80;8.00;;;;;;;22.19;60.74;100967.50;4905505;29;20067;-80
2022/08/13 03:57:41;;;;;;;12.48;7.47;;;;;;;22.54;61.20;101031.50;4904957;29;20243;-82
2022/08/13 04:00:29;;;;;;;9.27;7.45;;;;;;;22.58;60.87;101030.06;4890677;29;20052;-82
2022/08/13 04:02:57;;;;;;;8.10;7.30;;;;;;;22.48;60.87;101010.69;4904821;29;20166;-81
2022/08/13 04:05:25;;;;;;;8.23;7.43;;;;;;;22.59;61.12;101039.81;4890065;29;20550;-80
2022/08/13 04:08:12;;;;;;;10.25;8.35;;;;;;;22.63;60.48;101041.09;4902534;29;20056;-81
2022/08/13 04:10:42;;;;;;;9.77;7.80;;;;;;;22.43;61.20;101023.97;4888418;29;20351;-81
2022/08/13 04:13:20;;;;;;;11.05;7.80;;;;;;;22.33;61.28;101017.09;4903836;29;20142;-81
2022/08/13 04:16:10;;;;;;;8.73;7.78;;;;;;;22.45;61.05;101049.78;4902761;29;20152;-81
2022/08/13 04:18:39;;;;;;;10.93;7.53;;;;;;;22.39;61.89;101040.63;4904613;29;20271;-81
2022/08/13 04:21:10;;;;;;;8.20;7.10;;;;;;;22.51;61.05;101048.16;4904014;29;20409;-82
2022/08/13 04:23:48;;;;;;;9.77;7.38;;;;;;;22.35;61.20;101025.00;4903340;29;20410;-81
2022/08/13 04:26:16;;;;;;;9.63;6.82;;;;;;;22.52;61.10;101044.38;4890032;29;20051;-80
2022/08/13 04:28:59;;;;;;;9.80;7.05;;;;;;;22.50;61.07;101035.63;4902666;29;20052;-81
2022/08/13 04:31:26;;;;;;;11.40;6.50;;;;;;;22.48;60.93;101027.75;4888412;29;20446;-81
2022/08/13 04:34:13;;;;;;;6.72;6.00;;;;;;;22.36;61.10;101024.81;4888954;29;20366;-81
2022/08/13 04:37:01;;;;;;;7.15;6.43;;;;;;;22.42;60.88;101033.13;4892991;29;20040;-82
2022/08/13 04:39:30;;;;;;;6.47;5.88;;;;;;;22.24;60.69;100991.28;4911406;29;20074;-81
2022/08/13 04:42:16;;;;;;;10.75;7.22;;;;;;;22.49;60.14;101006.94;4891608;29;20470;-80
2022/08/13 04:44:58;;;;;;;7.72;7.03;;;;;;;22.49;60.99;101015.03;4906278;29;20138;-81
2022/08/13 04:47:29;;;;;;;;;;;;;;;22.52;61.03;101028.97;4894003;29;20048;-80
2022/08/13 04:49:56;;;;;;;7.70;6.88;;;;;;;22.54;60.46;101010.69;4887197;29;19931;-82
2022/08/13 04:52:23;;;;;;;7.70;6.90;;;;;;;22.50;60.54;100998.63;4900785;29;20182;-81
2022/08/13 04:54:55;;;;;;;9.57;6.38;;;;;;;22.47;60.47;101009.00;4890361;29;20592;-81
2022/08/13 04:57:22;;;;;;;8.13;6.80;;;;;;;22.40;60.26;100992.75;4903507;29;20382;-81
2022/08/13 05:00:10;;;;;;;7.28;5.90;;;;;;;22.13;60.47;100945.84;4898013;29;20048;-82
2022/08/13 05:02:40;;;;;;;7.50;6.55;;;;;;;22.51;59.81;101000.28;4895859;29;20064;-82
2022/08/13 05:05:11;;;;;;;7.30;6.32;;;;;;;22.68;59.99;101027.78;4896326;29;20408;-82
2022/08/13 05:07:50;;;;;;;8.40;7.50;;;;;;;22.78;59.53;101028.19;4883157;29;20138;-82
2022/08/13 05:10:21;;;;;;;9.00;7.22;;;;;;;22.35;59.75;100957.38;4899885;29;20075;-81
2022/08/13 05:13:01;;;;;;;8.43;7.57;;;;;;;22.16;60.23;100938.19;4899411;29;20052;-81
2022/08/13 05:15:31;;;;;;;8.18;7.25;;;;;;;22.75;59.30;101001.56;4899132;29;20521;-81
2022/08/13 05:18:13;;;;;;;7.80;7.10;;;;;;;22.07;58.97;100887.22;4886360;29;20540;-81
2022/08/13 05:20:48;;;;;;;13.20;7.00;;;;;;;22.93;58.68;101008.22;4898630;29;20146;-81
2022/08/13 05:23:19;;;;;;;7.88;5.88;;;;;;;22.73;58.88;100984.69;4874523;29;20143;-80
2022/08/13 05:26:07;;;;;;;8.15;6.75;;;;;;;22.59;59.04;100975.72;4887840;29;20056;-81
2022/08/13 05:28:56;;;;;;;8.55;6.85;;;;;;;22.84;58.88;101010.28;4884678;29;20521;-81
2022/08/13 05:31:23;;;;;;;10.65;7.40;;;;;;;22.61;58.52;100964.69;4883443;29;20195;-82
2022/08/13 05:33:50;;;;;;;6.97;6.38;;;;;;;22.88;58.54;101002.59;4885802;29;20223;-81
2022/08/13 05:36:31;;;;;;;8.65;6.88;;;;;;;22.35;58.87;100904.09;4898460;29;20525;-81
2022/08/13 05:39:18;;;;;;;9.23;8.05;;;;;;;23.01;58.11;100997.19;4884226;29;20558;-81
2022/08/13 05:41:47;;;;;;;7.57;6.78;;;;;;;22.87;58.26;100988.25;4884669;29;20052;-81
2022/08/13 05:44:34;;;;;;;11.80;7.50;;;;;;;22.98;58.38;101000.34;4896625;29;20313;-81
2022/08/13 05:47:05;;;;;;;9.68;7.13;;;;;;;23.07;58.01;101009.91;4898222;29;20605;-80
2022/08/13 05:49:33;;;;;;;6.72;6.10;;;;;;;22.73;57.88;100954.91;4898530;29;20458;-81
2022/08/13 05:52:20;;;;;;;7.10;6.15;;;;;;;22.96;57.84;100986.13;4896371;29;20048;-82
2022/08/13 05:55:05;;;;;;;8.45;6.00;;;;;;;23.10;57.49;100987.84;4896837;29;20055;-80
2022/08/13 05:57:52;;;;;;;7.75;5.60;;;;;;;23.06;57.57;100991.16;4896728;29;20060;-80
2022/08/13 06:03:24;;;;;;;7.43;4.53;;;;;;;23.15;57.38;100998.03;4884679;29;20551;-82
2022/08/13 06:06:14;;;;;;;4.28;3.90;;;;;;;22.92;56.75;100945.13;4884495;29;20426;-84
2022/08/13 06:08:49;;;;;;;7.63;4.28;;;;;;;23.09;56.80;100971.81;4898668;29;20060;-81
2022/08/13 06:11:17;;;;;;;4.45;3.92;;;;;;;23.07;56.69;100963.88;4883686;29;20693;-79
2022/08/13 06:14:04;;;;;;;6.18;4.65;;;;;;;23.21;56.55;100981.78;4894620;29;20536;-79
2022/08/13 06:16:34;;;;;;;4.93;4.00;;;;;;;22.16;56.98;100813.81;4899502;29;20164;-81
2022/08/13 06:19:25;;;;;;;5.60;4.40;;;;;;;23.28;56.21;100978.22;4897158;29;20702;-82
2022/08/13 06:22:04;;;;;;;7.13;3.80;;;;;;;23.38;56.07;100984.06;4884090;29;20052;-82
2022/08/13 06:24:33;;;;;;;4.05;3.63;;;;;;;22.98;56.51;100929.94;4888230;29;20175;-81
2022/08/13 06:27:04;;;;;;;8.70;3.45;;;;;;;23.46;55.91;100994.66;4842630;29;20327;-81
2022/08/13 06:29:45;;;;;;;7.97;3.70;;;;;;;23.48;56.07;100994.47;4862355;29;20537;-81
2022/08/13 06:32:20;;;;;;;3.25;2.95;;;;;;;23.57;55.44;100994.00;4857157;29;20067;-82
2022/08/13 06:35:08;;;;;;;4.03;3.08;;;;;;;23.57;55.03;100979.59;4894880;29;20167;-84
2022/08/13 06:37:44;;;;;;;3.55;2.85;;;;;;;23.65;53.69;100980.22;4897639;29;20131;-81
2022/08/13 06:40:21;;;;;;;7.23;3.53;;;;;;;23.81;53.30;100997.94;4883327;29;20056;-82
2022/08/13 06:42:59;;;;;;;4.22;3.00;;;;;;;23.63;53.78;100976.88;4896530;29;20058;-81
2022/08/13 06:45:26;;;;;;;5.18;3.28;;;;;;;23.83;53.39;101003.13;4883198;29;20369;-81
2022/08/13 06:48:01;;;;;;;2.95;2.75;;;;;;;23.81;53.70;100988.94;4901199;29;20927;-80
2022/08/13 06:50:33;;;;;;;3.72;3.08;;;;;;;23.88;52.40;100966.22;4899438;29;20582;-82
2022/08/13 06:53:03;;;;;;;2.70;2.50;;;;;;;23.98;53.07;100992.00;4882214;29;20660;-80
2022/08/13 06:55:52;;;;;;;7.57;2.78;;;;;;;23.91;51.64;100964.09;4897680;29;20052;-80
2022/08/13 06:58:47;;;;;;;3.38;2.67;;;;;;;24.01;51.88;101005.97;4884690;29;20051;-81
2022/08/13 07:01:19;;;;;;;4.20;2.50;;;;;;;24.15;51.14;101009.44;4898521;29;20262;-82
2022/08/13 07:03:50;;;;;;;3.50;2.47;;;;;;;23.81;50.88;100961.84;4896993;29;20064;-81
2022/08/13 07:06:27;;;;;;;2.72;2.38;;;;;;;23.62;51.62;100945.44;4897239;29;20107;-81
2022/08/13 07:08:56;;;;;;;2.85;2.30;;;;;;;23.60;50.69;100917.69;4897329;29;20056;-81
2022/08/13 07:11:26;;;;;;;2.30;2.10;;;;;;;24.09;50.75;101003.00;4897806;29;20072;-82
2022/08/13 07:14:06;;;;;;;4.53;2.72;;;;;;;23.57;50.79;100915.44;4895627;29;20555;-81
2022/08/13 07:16:40;;;;;;;2.55;2.00;;;;;;;24.24;50.91;101005.44;4881878;29;20975;-80
2022/08/13 07:19:11;;;;;;;3.03;2.42;;;;;;;24.24;50.54;101010.03;4896458;29;20299;-82
2022/08/13 07:21:39;;;;;;;3.33;2.25;;;;;;;24.36;49.92;101005.59;4898319;29;20426;-81
2022/08/13 07:24:12;;;;;;;3.42;1.98;;;;;;;24.16;50.31;100980.47;4898166;29;20199;-81
2022/08/13 07:27:07;;;;;;;2.42;2.05;;;;;;;23.96;50.32;100953.41;4895958;29;20083;-82
2022/08/13 07:29:38;;;;;;;2.70;2.50;;;;;;;24.28;50.50;100995.81;4897017;29;20057;-81
2022/08/13 07:32:19;;;;;;;;;;;;;;;24.36;50.52;101007.47;4900596;29;20370;-81
2022/08/13 07:34:58;;;;;;;3.25;2.60;;;;;;;24.44;50.02;101005.34;4887452;29;19919;-84
2022/08/13 07:37:27;;;;;;;2.38;2.20;;;;;;;24.41;49.38;100991.38;4886795;29;20054;-81
2022/08/13 07:39:55;;;;;;;3.17;2.33;;;;;;;24.59;49.87;101012.34;4880972;29;20060;-82
2022/08/13 07:42:27;;;;;;;3.22;2.45;;;;;;;24.70;49.19;101008.94;4877361;29;20064;-81
2022/08/13 07:45:09;;;;;;;2.38;2.17;;;;;;;24.70;49.09;101017.91;4863646;29;20056;-82
2022/08/13 07:47:57;;;;;;;2.42;2.22;;;;;;;24.51;49.82;101006.13;4875378;29;20056;-81
2022/08/13 07:50:42;;;;;;;2.38;2.17;;;;;;;24.44;50.04;101010.78;4874604;29;20056;-81
2022/08/13 07:53:29;;;;;;;3.83;2.30;;;;;;;24.48;49.52;100995.72;4863341;29;20506;-82
2022/08/13 07:56:21;;;;;;;2.33;1.92;;;;;;;24.44;48.89;100969.22;4874509;29;20507;-82
2022/08/13 07:59:07;;;;;;;3.50;2.15;;;;;;;24.74;49.12;101008.28;4877315;29;20593;-81
2022/08/13 08:01:55;;;;;;;5.70;2.50;;;;;;;24.70;49.17;101007.06;4877086;29;20063;-82
2022/08/13 08:04:43;;;;;;;2.25;2.05;;;;;;;24.77;49.15;101009.72;4863035;29;20135;-81
2022/08/13 08:07:16;;;;;;;3.88;2.35;;;;;;;24.83;49.60;101008.00;4877294;29;20180;-80
2022/08/13 08:09:43;;;;;;;2.78;2.58;;;;;;;24.41;49.46;100946.06;4879063;29;20253;-82
2022/08/13 08:14:57;;;;;;;2.90;2.38;;;;;;;24.96;49.37;101002.47;4877885;29;20340;-80
2022/08/13 08:17:26;;;;;;;3.53;2.20;;;;;;;25.02;48.81;101006.19;4896297;29;20605;-80
2022/08/13 08:20:21;;;;;;;4.00;2.33;;;;;;;25.05;49.16;101008.44;4895749;29;20207;-80
2022/08/13 08:23:05;;;;;;;2.75;2.55;;;;;;;25.11;49.04;100994.81;4896252;29;20056;-81
2022/08/13 08:25:39;;;;;;;5.35;2.60;;;;;;;25.15;48.65;100992.50;4897600;29;20051;-81
2022/08/13 08:28:30;;;;;;;3.20;2.40;;;;;;;25.27;47.78;100993.44;4905830;29;20477;-81
2022/08/13 08:31:07;;;;;;;3.17;2.90;;;;;;;25.11;47.25;100953.25;4916161;29;20536;-80
2022/08/13 08:33:56;;;;;;;2.83;2.35;;;;;;;25.24;47.49;100972.13;4901374;29;20203;-80
2022/08/13 08:36:24;;;;;;;3.30;2.25;;;;;;;25.25;48.29;100992.84;4902873;29;20183;-80
2022/08/13 08:44:56;;;;;;;5.20;2.58;;;;;;;25.27;46.82;100954.56;4903218;29;20239;-81
2022/08/13 08:47:35;;;;;;;3.90;2.60;;;;;;;25.63;46.49;101007.28;4916463;29;20630;-80
2022/08/13 08:50:16;;;;;;;4.38;2.88;;;;;;;25.58;46.57;100983.50;4915319;29;20639;-81
2022/08/13 08:56:04;;;;;;;7.68;2.88;;;;;;;26.01;45.26;101007.06;4884636;29;20674;-80
2022/08/13 08:58:35;;;;;;;3.50;2.97;;;;;;;25.94;44.97;100970.97;4885780;29;20187;-79
2022/08/13 09:01:08;;;;;;;3.08;2.25;;;;;;;26.05;44.94;100991.97;4900888;29;20064;-81
2022/08/13 09:03:40;;;;;;;3.03;2.72;;;;;;;26.14;44.72;101004.19;4882813;29;20052;-81
2022/08/13 09:06:25;;;;;;;7.97;2.47;;;;;;;26.17;43.88;100998.28;4882806;29;20526;-81
2022/08/13 09:09:13;;;;;;;2.55;2.33;;;;;;;25.90;44.30;100945.28;4875689;29;20058;-81
2022/08/13 09:11:45;;;;;;;3.40;2.55;;;;;;;25.44;44.28;100860.53;4864692;29;20057;-80
2022/08/13 09:14:21;;;;;;;2.92;2.70;;;;;;;26.14;43.42;100938.88;4877546;29;20602;-81
2022/08/13 09:16:49;;;;;;;3.60;2.80;;;;;;;26.58;42.70;101003.97;4877987;29;20078;-81
2022/08/13 09:19:18;;;;;;;4.13;2.88;;;;;;;26.71;42.04;101001.06;4877972;29;20396;-81
2022/08/13 09:21:59;;;;;;;;;;;;;;;26.72;42.01;101004.63;4877357;29;20529;-82
2022/08/13 09:24:26;;;;;;;2.42;2.25;;;;;;;26.66;41.16;100972.91;4877847;29;20054;-81
2022/08/13 09:26:52;;;;;;;5.47;2.35;;;;;;;26.86;41.81;101006.06;4877266;29;20052;-82
2022/08/13 09:29:25;;;;;;;2.40;2.20;;;;;;;26.79;42.08;100989.00;4914017;28;20087;-80
2022/08/13 09:31:58;;;;;;;2.92;2.65;;;;;;;27.02;41.49;101004.56;4919213;29;20052;-80
2022/08/13 09:34:27;;;;;;;4.72;2.25;;;;;;;27.19;41.14;101002.00;4918814;29;20230;-80
2022/08/13 09:36:56;;;;;;;2.80;2.53;;;;;;;27.26;41.02;100989.91;4890523;29;20226;-80
2022/08/13 09:39:34;;;;;;;3.78;2.40;;;;;;;27.65;39.60;100997.56;4899856;29;20146;-81
2022/08/13 09:42:18;;;;;;;2.72;2.35;;;;;;;27.41;40.10;100964.88;4899306;29;20103;-80
2022/08/13 09:44:59;;;;;;;3.88;2.53;;;;;;;27.49;39.77;100967.22;4898671;29;20067;-80
2022/08/13 09:47:27;;;;;;;2.42;2.20;;;;;;;27.63;39.59;100994.25;4902086;29;20048;-80
2022/08/13 09:50:13;;;;;;;3.25;2.70;;;;;;;27.80;39.39;100988.88;4882826;29;20044;-81
2022/08/13 09:52:40;;;;;;;3.40;2.72;;;;;;;27.67;39.46;100954.47;4883250;29;20435;-81
2022/08/13 09:55:08;;;;;;;2.55;2.30;;;;;;;27.91;39.38;100969.75;4899971;29;20516;-80
2022/08/13 09:57:59;;;;;;;2.72;2.53;;;;;;;28.16;38.64;100990.44;4898556;29;20143;-81
2022/08/13 10:00:31;;;;;;;2.72;2.53;;;;;;;28.33;37.96;100983.09;4898206;29;20581;-81
2022/08/13 10:03:04;;;;;;;5.95;2.78;;;;;;;28.14;38.10;100940.72;4896734;29;20272;-81
2022/08/13 10:05:34;;;;;;;2.97;2.50;;;;;;;28.05;37.82;100912.97;4896197;29;20063;-82
2022/08/13 10:08:06;;;;;;;2.53;2.33;;;;;;;28.61;38.03;100986.88;4898251;29;20796;-79
2022/08/13 10:10:33;;;;;;;5.78;2.53;;;;;;;28.43;37.52;100959.78;4898087;29;20060;-81
2022/08/13 10:13:02;;;;;;;4.50;2.28;;;;;;;28.82;37.69;100979.03;4898467;29;20453;-81
2022/08/13 10:15:29;;;;;;;3.50;2.25;;;;;;;28.91;36.84;100986.56;4884284;29;20507;-81
2022/08/13 10:18:04;;;;;;;2.25;2.05;;;;;;;29.05;36.10;100995.22;4897662;29;20052;-82
2022/08/13 10:20:39;;;;;;;2.47;2.28;;;;;;;29.13;36.04;100988.56;4897428;29;20517;-81
2022/08/13 10:23:08;;;;;;;2.38;2.08;;;;;;;29.30;35.38;101008.50;4883728;29;20529;-81
2022/08/13 10:25:37;;;;;;;4.28;2.25;;;;;;;29.27;35.37;100964.41;4898278;29;20517;-82
2022/08/13 10:28:18;;;;;;;2.72;2.33;;;;;;;29.63;34.88;100984.88;4897061;29;20052;-81
2022/08/13 10:31:03;;;;;;;2.47;2.28;;;;;;;29.69;35.02;100983.06;4896539;29;20056;-81
2022/08/13 10:33:54;;;;;;;4.78;2.30;;;;;;;29.59;33.95;100959.13;4895730;29;20259;-81
2022/08/13 10:36:28;;;;;;;2.88;2.28;;;;;;;29.64;33.89;100948.25;4883780;29;20598;-81
2022/08/13 10:39:05;;;;;;;1.95;1.83;;;;;;;29.92;32.41;100963.63;4897055;29;20063;-81
2022/08/13 10:41:35;;;;;;;2.38;2.08;;;;;;;30.26;32.20;100966.19;4897740;29;20417;-82
2022/08/13 10:44:22;;;;;;;2.47;2.28;;;;;;;30.26;32.29;100963.47;4894918;29;20175;-80
2022/08/13 10:46:53;;;;;;;3.63;2.33;;;;;;;30.50;32.31;100966.69;4898119;29;20126;-82
2022/08/13 10:49:20;;;;;;;2.75;2.55;;;;;;;30.55;32.07;100953.03;4897453;29;20059;-80
2022/08/13 10:51:48;;;;;;;2.72;2.53;;;;;;;30.33;31.53;100895.63;4881996;29;20154;-79
2022/08/13 10:54:32;;;;;;;2.53;2.33;;;;;;;30.66;31.30;100927.38;4895945;29;20056;-81
2022/08/13 10:57:05;;;;;;;2.38;2.08;;;;;;;30.99;31.78;100946.53;4883359;29;20060;-80
2022/08/13 10:59:43;;;;;;;2.47;2.25;;;;;;;30.99;31.07;100946.53;4896282;29;20052;-80
2022/08/13 11:02:12;;;;;;;3.70;2.30;;;;;;;31.20;31.32;100959.28;4896572;29;20179;-81
2022/08/13 11:04:46;;;;;;;3.67;2.00;;;;;;;31.30;31.65;100945.63;4896401;29;20060;-81
2022/08/13 11:07:18;;;;;;;2.05;1.88;;;;;;;31.44;31.31;100953.41;4884462;29;20052;-80
2022/08/13 11:09:46;;;;;;;2.33;1.92;;;;;;;31.26;30.83;100886.91;4897977;29;20776;-80
2022/08/13 11:12:16;;;;;;;2.95;2.75;;;;;;;31.75;30.46;100948.03;4897209;29;20684;-81
2022/08/13 11:14:47;;;;;;;2.80;2.60;;;;;;;31.79;30.59;100944.47;4882039;29;20625;-80
2022/08/13 11:17:17;;;;;;;5.15;2.30;;;;;;;31.61;30.79;100907.38;4881833;29;20048;-79
2022/08/13 11:20:06;;;;;;;6.53;2.60;;;;;;;31.87;30.54;100934.88;4887243;29;20056;-80
2022/08/13 11:22:34;;;;;;;2.53;2.33;;;;;;;32.03;30.67;100927.53;4883017;29;20347;-81
2022/08/13 11:25:03;;;;;;;3.13;2.42;;;;;;;32.17;29.79;100941.59;4896708;29;20607;-81
2022/08/13 11:27:50;;;;;;;4.75;2.30;;;;;;;31.96;29.63;100886.63;4893279;29;20100;-80
2022/08/13 11:30:19;;;;;;;2.95;2.53;;;;;;;32.03;29.61;100883.63;4896148;29;20620;-81
2022/08/13 11:33:04;;;;;;;3.20;2.90;;;;;;;32.43;28.95;100940.50;4894854;29;20658;-81
2022/08/13 11:35:40;;;;;;;2.60;2.13;;;;;;;32.39;29.29;100936.66;4895844;29;20147;-81
2022/08/13 11:38:16;;;;;;;2.60;2.40;;;;;;;32.17;29.13;100890.22;4882941;29;20474;-80
2022/08/13 11:40:49;;;;;;;2.53;2.33;;;;;;;32.03;29.24;100845.19;4883708;29;20410;-79
2022/08/13 11:43:27;;;;;;;2.63;2.42;;;;;;;32.62;29.21;100931.72;4884417;29;20155;-81
2022/08/13 11:46:15;;;;;;;3.80;2.47;;;;;;;32.60;29.45;100899.03;4898709;29;20052;-82
2022/08/13 11:48:45;;;;;;;3.47;2.50;;;;;;;32.81;29.28;100877.00;4886798;29;20056;-83
2022/08/13 11:51:32;;;;;;;4.95;2.90;;;;;;;33.30;28.71;100918.38;4897911;29;20309;-81
2022/08/13 11:54:19;;;;;;;3.30;3.00;;;;;;;33.22;28.75;100927.22;4900207;29;20228;-80
2022/08/13 11:57:03;;;;;;;2.50;2.30;;;;;;;33.27;28.65;100920.88;4903622;29;20060;-81
2022/08/13 11:59:39;;;;;;;2.67;2.13;;;;;;;33.50;28.94;100916.66;4906256;29;20075;-81
2022/08/13 12:02:12;;;;;;;3.00;2.65;;;;;;;33.35;28.58;100866.13;4907551;29;20087;-83
2022/08/13 12:04:44;;;;;;;3.13;2.60;;;;;;;33.88;28.28;100922.53;4894576;29;20162;-80
2022/08/13 12:07:20;;;;;;;4.10;2.50;;;;;;;33.90;28.32;100910.13;4909127;29;20219;-80
2022/08/13 12:09:47;;;;;;;5.75;2.40;;;;;;;33.92;27.66;100885.06;4911041;29;20572;-82
2022/08/13 12:12:22;;;;;;;3.22;2.70;;;;;;;34.16;27.23;100907.25;4913525;29;20055;-82
2022/08/13 12:14:57;;;;;;;2.88;2.55;;;;;;;34.13;26.80;100853.56;4914884;29;20062;-82
2022/08/13 12:17:23;;;;;;;2.63;2.42;;;;;;;34.45;26.74;100899.81;4915955;29;20055;-80
2022/08/13 12:20:13;;;;;;;3.95;2.63;;;;;;;34.26;26.46;100872.16;4914203;29;20056;-81
2022/08/13 12:22:50;;;;;;;2.80;2.60;;;;;;;34.55;26.61;100900.84;4903128;29;20052;-79
2022/08/13 12:25:20;;;;;;;2.17;2.08;;;;;;;34.44;26.71;100859.56;4897994;29;20558;-80
2022/08/13 12:28:18;;;;;;;5.18;2.67;;;;;;;34.81;26.93;100902.28;4894227;29;20067;-81
2022/08/13 12:30:57;;;;;;;6.32;2.08;;;;;;;34.77;26.36;100883.84;4896626;29;20919;-81
2022/08/13 12:33:25;;;;;;;5.18;2.65;;;;;;;35.08;26.28;100909.16;4896245;29;20048;-82
2022/08/13 12:35:57;;;;;;;4.30;2.05;;;;;;;35.24;26.17;100882.19;4895174;29;20684;-81